sensor_id;sensor_type;location;lat;lon;timestamp;P1;durP1;ratioP1;P2;durP2;ratioP2
10045;SDS011;5063;50.878;4.742;2023-08-01T00:00:49;2.83;;;1.50;;
10045;SDS011;5063;50.878;4.742;2023-08-01T00:03:15;2.87;;;1.30;;
10045;SDS011;5063;50.878;4.742;2023-08-01T00:05:41;1.87;;;1.30;;
10045;SDS011;5063;50.878;4.742;2023-08-01T00:08:13;2.70;;;1.40;;
10045;SDS011;5063;50.878;4.742;2023-08-01T00:10:39;1.40;;;1.30;;
10045;SDS011;5063;50.878;4.742;2023-08-01T00:13:06;1.57;;;1.20;;
10045;SDS011;5063;50.878;4.742;2023-08-01T00:15:32;3.93;;;1.30;;
10045;SDS011;5063;50.878;4.742;2023-08-01T00:17:57;2.33;;;1.20;;
10045;SDS011;5063;50.878;4.742;2023-08-01T00:20:23;1.70;;;1.33;;
10045;SDS011;5063;50.878;4.742;2023-08-01T00:22:49;2.40;;;1.50;;
10045;SDS011;5063;50.878;4.742;2023-08-01T00:25:14;1.50;;;1.40;;
10045;SDS011;5063;50.878;4.742;2023-08-01T00:27:40;4.10;;;1.30;;
10045;SDS011;5063;50.878;4.742;2023-08-01T00:30:06;3.77;;;1.40;;
10045;SDS011;5063;50.878;4.742;2023-08-01T00:32:32;4.07;;;1.90;;
10045;SDS011;5063;50.878;4.742;2023-08-01T00:34:58;3.07;;;1.67;;
10045;SDS011;5063;50.878;4.742;2023-08-01T00:37:24;3.23;;;1.77;;
10045;SDS011;5063;50.878;4.742;2023-08-01T00:39:50;1.63;;;1.43;;
10045;SDS011;5063;50.878;4.742;2023-08-01T00:42:15;4.47;;;2.07;;
10045;SDS011;5063;50.878;4.742;2023-08-01T00:44:41;2.53;;;1.90;;
10045;SDS011;5063;50.878;4.742;2023-08-01T00:47:07;2.47;;;1.70;;
10045;SDS011;5063;50.878;4.742;2023-08-01T00:49:34;2.37;;;1.73;;
10045;SDS011;5063;50.878;4.742;2023-08-01T00:52:00;1.77;;;1.67;;
10045;SDS011;5063;50.878;4.742;2023-08-01T00:54:25;6.30;;;2.20;;
10045;SDS011;5063;50.878;4.742;2023-08-01T00:56:52;3.20;;;2.10;;
10045;SDS011;5063;50.878;4.742;2023-08-01T00:59:18;3.43;;;2.07;;
10045;SDS011;5063;50.878;4.742;2023-08-01T01:01:44;2.27;;;1.67;;
10045;SDS011;5063;50.878;4.742;2023-08-01T01:04:09;2.50;;;2.23;;
10045;SDS011;5063;50.878;4.742;2023-08-01T01:06:44;3.70;;;1.80;;
10045;SDS011;5063;50.878;4.742;2023-08-01T01:09:31;4.80;;;2.57;;
10045;SDS011;5063;50.878;4.742;2023-08-01T01:11:57;4.03;;;2.33;;
10045;SDS011;5063;50.878;4.742;2023-08-01T01:14:25;3.00;;;2.10;;
10045;SDS011;5063;50.878;4.742;2023-08-01T01:16:51;7.40;;;2.37;;
10045;SDS011;5063;50.878;4.742;2023-08-01T01:19:17;2.73;;;2.00;;
10045;SDS011;5063;50.878;4.742;2023-08-01T01:21:43;4.80;;;2.23;;
10045;SDS011;5063;50.878;4.742;2023-08-01T01:24:10;3.53;;;2.00;;
10045;SDS011;5063;50.878;4.742;2023-08-01T01:26:37;4.47;;;2.40;;
10045;SDS011;5063;50.878;4.742;2023-08-01T01:29:05;5.53;;;2.40;;
10045;SDS011;5063;50.878;4.742;2023-08-01T01:31:33;3.30;;;2.50;;
10045;SDS011;5063;50.878;4.742;2023-08-01T01:33:59;6.87;;;3.53;;
10045;SDS011;5063;50.878;4.742;2023-08-01T01:36:26;4.47;;;2.70;;
10045;SDS011;5063;50.878;4.742;2023-08-01T01:38:52;6.17;;;2.70;;
10045;SDS011;5063;50.878;4.742;2023-08-01T01:41:18;7.20;;;2.97;;
10045;SDS011;5063;50.878;4.742;2023-08-01T01:43:44;3.33;;;3.03;;
10045;SDS011;5063;50.878;4.742;2023-08-01T01:46:09;3.20;;;2.50;;
10045;SDS011;5063;50.878;4.742;2023-08-01T01:48:35;6.83;;;2.60;;
10045;SDS011;5063;50.878;4.742;2023-08-01T01:51:01;6.20;;;3.00;;
10045;SDS011;5063;50.878;4.742;2023-08-01T01:53:26;4.90;;;3.10;;
10045;SDS011;5063;50.878;4.742;2023-08-01T01:55:52;7.30;;;3.63;;
10045;SDS011;5063;50.878;4.742;2023-08-01T01:58:18;6.60;;;3.50;;
10045;SDS011;5063;50.878;4.742;2023-08-01T02:00:44;3.63;;;3.07;;
10045;SDS011;5063;50.878;4.742;2023-08-01T02:03:09;5.03;;;3.07;;
10045;SDS011;5063;50.878;4.742;2023-08-01T02:05:35;4.47;;;3.40;;
10045;SDS011;5063;50.878;4.742;2023-08-01T02:08:02;9.87;;;3.97;;
10045;SDS011;5063;50.878;4.742;2023-08-01T02:10:30;6.20;;;3.17;;
10045;SDS011;5063;50.878;4.742;2023-08-01T02:12:55;6.47;;;3.53;;
10045;SDS011;5063;50.878;4.742;2023-08-01T02:15:21;7.23;;;3.63;;
10045;SDS011;5063;50.878;4.742;2023-08-01T02:17:47;5.87;;;3.40;;
10045;SDS011;5063;50.878;4.742;2023-08-01T02:20:13;3.97;;;3.47;;
10045;SDS011;5063;50.878;4.742;2023-08-01T02:22:38;4.33;;;3.30;;
10045;SDS011;5063;50.878;4.742;2023-08-01T02:25:04;8.37;;;3.93;;
10045;SDS011;5063;50.878;4.742;2023-08-01T02:27:30;5.30;;;3.07;;
10045;SDS011;5063;50.878;4.742;2023-08-01T02:29:56;4.70;;;2.80;;
10045;SDS011;5063;50.878;4.742;2023-08-01T02:32:21;7.00;;;3.27;;
10045;SDS011;5063;50.878;4.742;2023-08-01T02:34:47;3.83;;;3.03;;
10045;SDS011;5063;50.878;4.742;2023-08-01T02:37:13;4.37;;;2.90;;
10045;SDS011;5063;50.878;4.742;2023-08-01T02:39:38;8.37;;;3.33;;
10045;SDS011;5063;50.878;4.742;2023-08-01T02:42:04;8.17;;;3.60;;
10045;SDS011;5063;50.878;4.742;2023-08-01T02:44:30;6.13;;;3.10;;
10045;SDS011;5063;50.878;4.742;2023-08-01T02:46:56;4.70;;;3.50;;
10045;SDS011;5063;50.878;4.742;2023-08-01T02:49:21;5.50;;;3.30;;
10045;SDS011;5063;50.878;4.742;2023-08-01T02:51:47;7.23;;;3.60;;
10045;SDS011;5063;50.878;4.742;2023-08-01T02:54:12;6.63;;;3.87;;
10045;SDS011;5063;50.878;4.742;2023-08-01T02:56:38;8.73;;;3.70;;
10045;SDS011;5063;50.878;4.742;2023-08-01T02:59:09;7.10;;;4.03;;
10045;SDS011;5063;50.878;4.742;2023-08-01T03:01:36;7.40;;;3.70;;
10045;SDS011;5063;50.878;4.742;2023-08-01T03:04:03;5.47;;;3.77;;
10045;SDS011;5063;50.878;4.742;2023-08-01T03:06:30;6.50;;;4.33;;
10045;SDS011;5063;50.878;4.742;2023-08-01T03:08:56;5.97;;;3.60;;
10045;SDS011;5063;50.878;4.742;2023-08-01T03:11:22;5.47;;;4.00;;
10045;SDS011;5063;50.878;4.742;2023-08-01T03:13:47;8.60;;;4.60;;
10045;SDS011;5063;50.878;4.742;2023-08-01T03:16:13;8.03;;;4.27;;
10045;SDS011;5063;50.878;4.742;2023-08-01T03:18:39;8.10;;;4.07;;
10045;SDS011;5063;50.878;4.742;2023-08-01T03:21:05;7.03;;;4.40;;
10045;SDS011;5063;50.878;4.742;2023-08-01T03:23:30;7.33;;;4.30;;
10045;SDS011;5063;50.878;4.742;2023-08-01T03:25:56;8.80;;;4.77;;
10045;SDS011;5063;50.878;4.742;2023-08-01T03:28:23;6.63;;;3.90;;
10045;SDS011;5063;50.878;4.742;2023-08-01T03:30:51;6.77;;;4.63;;
10045;SDS011;5063;50.878;4.742;2023-08-01T03:33:18;8.57;;;4.70;;
10045;SDS011;5063;50.878;4.742;2023-08-01T03:35:44;7.23;;;4.13;;
10045;SDS011;5063;50.878;4.742;2023-08-01T03:38:10;7.57;;;4.20;;
10045;SDS011;5063;50.878;4.742;2023-08-01T03:40:35;8.20;;;4.57;;
10045;SDS011;5063;50.878;4.742;2023-08-01T03:43:02;9.80;;;4.53;;
10045;SDS011;5063;50.878;4.742;2023-08-01T03:45:27;8.50;;;4.77;;
10045;SDS011;5063;50.878;4.742;2023-08-01T03:47:53;9.17;;;4.97;;
10045;SDS011;5063;50.878;4.742;2023-08-01T03:50:18;10.97;;;4.57;;
10045;SDS011;5063;50.878;4.742;2023-08-01T03:52:44;7.87;;;4.93;;
10045;SDS011;5063;50.878;4.742;2023-08-01T03:55:10;9.50;;;4.90;;
10045;SDS011;5063;50.878;4.742;2023-08-01T03:57:36;8.60;;;5.43;;
10045;SDS011;5063;50.878;4.742;2023-08-01T04:00:05;12.13;;;5.27;;
10045;SDS011;5063;50.878;4.742;2023-08-01T04:02:31;10.37;;;5.30;;
10045;SDS011;5063;50.878;4.742;2023-08-01T04:04:57;9.60;;;5.67;;
10045;SDS011;5063;50.878;4.742;2023-08-01T04:07:23;10.10;;;5.27;;
10045;SDS011;5063;50.878;4.742;2023-08-01T04:09:48;8.00;;;5.57;;
10045;SDS011;5063;50.878;4.742;2023-08-01T04:12:15;10.10;;;5.50;;
10045;SDS011;5063;50.878;4.742;2023-08-01T04:14:40;8.50;;;5.10;;
10045;SDS011;5063;50.878;4.742;2023-08-01T04:17:06;9.20;;;5.33;;
10045;SDS011;5063;50.878;4.742;2023-08-01T04:19:32;8.87;;;5.63;;
10045;SDS011;5063;50.878;4.742;2023-08-01T04:21:57;13.03;;;5.50;;
10045;SDS011;5063;50.878;4.742;2023-08-01T04:24:23;8.70;;;4.50;;
10045;SDS011;5063;50.878;4.742;2023-08-01T04:26:52;11.27;;;5.17;;
10045;SDS011;5063;50.878;4.742;2023-08-01T04:29:19;16.67;;;5.70;;
10045;SDS011;5063;50.878;4.742;2023-08-01T04:31:44;8.50;;;4.27;;
10045;SDS011;5063;50.878;4.742;2023-08-01T04:34:10;11.10;;;4.83;;
10045;SDS011;5063;50.878;4.742;2023-08-01T04:36:36;9.53;;;5.43;;
10045;SDS011;5063;50.878;4.742;2023-08-01T04:39:01;12.50;;;4.50;;
10045;SDS011;5063;50.878;4.742;2023-08-01T04:41:27;10.00;;;5.10;;
10045;SDS011;5063;50.878;4.742;2023-08-01T04:43:53;12.00;;;5.60;;
10045;SDS011;5063;50.878;4.742;2023-08-01T04:46:18;7.37;;;5.37;;
10045;SDS011;5063;50.878;4.742;2023-08-01T04:48:44;11.43;;;5.10;;
10045;SDS011;5063;50.878;4.742;2023-08-01T04:51:10;10.57;;;5.33;;
10045;SDS011;5063;50.878;4.742;2023-08-01T04:53:35;10.73;;;6.03;;
10045;SDS011;5063;50.878;4.742;2023-08-01T04:56:01;13.33;;;6.10;;
10045;SDS011;5063;50.878;4.742;2023-08-01T04:58:27;10.23;;;6.13;;
10045;SDS011;5063;50.878;4.742;2023-08-01T05:00:52;10.60;;;6.77;;
10045;SDS011;5063;50.878;4.742;2023-08-01T05:03:18;10.27;;;5.50;;
10045;SDS011;5063;50.878;4.742;2023-08-01T05:05:44;8.50;;;5.63;;
10045;SDS011;5063;50.878;4.742;2023-08-01T05:08:09;13.87;;;6.13;;
10045;SDS011;5063;50.878;4.742;2023-08-01T05:10:35;7.97;;;5.80;;
10045;SDS011;5063;50.878;4.742;2023-08-01T05:13:01;11.37;;;5.20;;
10045;SDS011;5063;50.878;4.742;2023-08-01T05:15:27;10.60;;;6.20;;
10045;SDS011;5063;50.878;4.742;2023-08-01T05:17:53;9.87;;;5.90;;
10045;SDS011;5063;50.878;4.742;2023-08-01T05:20:19;11.70;;;5.40;;
10045;SDS011;5063;50.878;4.742;2023-08-01T05:22:45;9.43;;;5.03;;
10045;SDS011;5063;50.878;4.742;2023-08-01T05:25:10;14.23;;;5.60;;
10045;SDS011;5063;50.878;4.742;2023-08-01T05:27:36;11.27;;;5.80;;
10045;SDS011;5063;50.878;4.742;2023-08-01T05:30:02;13.27;;;6.27;;
10045;SDS011;5063;50.878;4.742;2023-08-01T05:32:28;12.83;;;5.77;;
10045;SDS011;5063;50.878;4.742;2023-08-01T05:34:53;10.77;;;6.30;;
10045;SDS011;5063;50.878;4.742;2023-08-01T05:37:19;9.20;;;5.27;;
10045;SDS011;5063;50.878;4.742;2023-08-01T05:39:45;12.53;;;5.77;;
10045;SDS011;5063;50.878;4.742;2023-08-01T05:42:10;11.27;;;6.10;;
10045;SDS011;5063;50.878;4.742;2023-08-01T05:44:36;12.63;;;5.30;;
10045;SDS011;5063;50.878;4.742;2023-08-01T05:47:02;10.60;;;5.50;;
10045;SDS011;5063;50.878;4.742;2023-08-01T05:49:27;8.00;;;5.40;;
10045;SDS011;5063;50.878;4.742;2023-08-01T05:51:54;11.80;;;5.57;;
10045;SDS011;5063;50.878;4.742;2023-08-01T05:54:20;9.93;;;5.37;;
10045;SDS011;5063;50.878;4.742;2023-08-01T05:56:46;11.83;;;5.17;;
10045;SDS011;5063;50.878;4.742;2023-08-01T05:59:12;12.10;;;5.27;;
10045;SDS011;5063;50.878;4.742;2023-08-01T06:01:37;10.13;;;5.20;;
10045;SDS011;5063;50.878;4.742;2023-08-01T06:04:03;12.23;;;5.23;;
10045;SDS011;5063;50.878;4.742;2023-08-01T06:06:29;9.50;;;4.53;;
10045;SDS011;5063;50.878;4.742;2023-08-01T06:08:54;12.50;;;5.30;;
10045;SDS011;5063;50.878;4.742;2023-08-01T06:11:21;11.47;;;5.20;;
10045;SDS011;5063;50.878;4.742;2023-08-01T06:13:47;12.40;;;6.17;;
10045;SDS011;5063;50.878;4.742;2023-08-01T06:16:12;11.80;;;6.23;;
10045;SDS011;5063;50.878;4.742;2023-08-01T06:18:38;13.20;;;5.70;;
10045;SDS011;5063;50.878;4.742;2023-08-01T06:21:04;7.77;;;5.93;;
10045;SDS011;5063;50.878;4.742;2023-08-01T06:23:29;13.17;;;6.17;;
10045;SDS011;5063;50.878;4.742;2023-08-01T06:25:55;12.60;;;5.63;;
10045;SDS011;5063;50.878;4.742;2023-08-01T06:28:21;11.63;;;6.50;;
10045;SDS011;5063;50.878;4.742;2023-08-01T06:30:46;7.28;;;5.18;;
10045;SDS011;5063;50.878;4.742;2023-08-01T06:33:12;8.38;;;4.68;;
10045;SDS011;5063;50.878;4.742;2023-08-01T06:35:38;8.50;;;5.03;;
10045;SDS011;5063;50.878;4.742;2023-08-01T06:38:03;9.85;;;5.03;;
10045;SDS011;5063;50.878;4.742;2023-08-01T06:40:29;9.90;;;5.28;;
10045;SDS011;5063;50.878;4.742;2023-08-01T06:42:55;8.50;;;4.75;;
10045;SDS011;5063;50.878;4.742;2023-08-01T06:45:20;8.18;;;4.88;;
10045;SDS011;5063;50.878;4.742;2023-08-01T06:47:46;11.27;;;4.72;;
10045;SDS011;5063;50.878;4.742;2023-08-01T06:50:12;12.05;;;5.00;;
10045;SDS011;5063;50.878;4.742;2023-08-01T06:52:37;9.48;;;4.70;;
10045;SDS011;5063;50.878;4.742;2023-08-01T06:55:03;13.57;;;5.22;;
10045;SDS011;5063;50.878;4.742;2023-08-01T06:57:29;8.10;;;4.90;;
10045;SDS011;5063;50.878;4.742;2023-08-01T06:59:55;12.93;;;5.40;;
10045;SDS011;5063;50.878;4.742;2023-08-01T07:02:21;8.65;;;4.90;;
10045;SDS011;5063;50.878;4.742;2023-08-01T07:04:47;8.65;;;4.72;;
10045;SDS011;5063;50.878;4.742;2023-08-01T07:07:13;7.40;;;4.80;;
10045;SDS011;5063;50.878;4.742;2023-08-01T07:09:38;10.82;;;5.20;;
10045;SDS011;5063;50.878;4.742;2023-08-01T07:12:04;8.32;;;5.65;;
10045;SDS011;5063;50.878;4.742;2023-08-01T07:14:30;11.15;;;5.45;;
10045;SDS011;5063;50.878;4.742;2023-08-01T07:16:56;8.98;;;5.28;;
10045;SDS011;5063;50.878;4.742;2023-08-01T07:19:22;7.90;;;5.10;;
10045;SDS011;5063;50.878;4.742;2023-08-01T07:21:47;9.00;;;5.10;;
10045;SDS011;5063;50.878;4.742;2023-08-01T07:24:14;10.55;;;5.03;;
10045;SDS011;5063;50.878;4.742;2023-08-01T07:26:40;12.57;;;5.07;;
10045;SDS011;5063;50.878;4.742;2023-08-01T07:29:06;11.43;;;5.25;;
10045;SDS011;5063;50.878;4.742;2023-08-01T07:31:33;9.13;;;4.70;;
10045;SDS011;5063;50.878;4.742;2023-08-01T07:33:59;8.07;;;4.97;;
10045;SDS011;5063;50.878;4.742;2023-08-01T07:36:25;7.85;;;5.35;;
10045;SDS011;5063;50.878;4.742;2023-08-01T07:38:51;6.65;;;4.07;;
10045;SDS011;5063;50.878;4.742;2023-08-01T07:41:18;8.07;;;4.70;;
10045;SDS011;5063;50.878;4.742;2023-08-01T07:43:43;7.70;;;4.20;;
10045;SDS011;5063;50.878;4.742;2023-08-01T07:46:09;6.90;;;4.00;;
10045;SDS011;5063;50.878;4.742;2023-08-01T07:48:36;5.50;;;3.53;;
10045;SDS011;5063;50.878;4.742;2023-08-01T07:51:03;5.97;;;3.70;;
10045;SDS011;5063;50.878;4.742;2023-08-01T07:53:30;7.93;;;3.83;;
10045;SDS011;5063;50.878;4.742;2023-08-01T07:55:56;9.05;;;4.22;;
10045;SDS011;5063;50.878;4.742;2023-08-01T07:58:22;10.55;;;3.88;;
10045;SDS011;5063;50.878;4.742;2023-08-01T08:00:48;5.35;;;3.88;;
10045;SDS011;5063;50.878;4.742;2023-08-01T08:03:13;7.40;;;3.58;;
10045;SDS011;5063;50.878;4.742;2023-08-01T08:05:39;6.32;;;3.55;;
10045;SDS011;5063;50.878;4.742;2023-08-01T08:08:05;7.00;;;3.60;;
10045;SDS011;5063;50.878;4.742;2023-08-01T08:10:31;9.23;;;4.18;;
10045;SDS011;5063;50.878;4.742;2023-08-01T08:12:57;8.02;;;3.60;;
10045;SDS011;5063;50.878;4.742;2023-08-01T08:15:23;8.32;;;3.67;;
10045;SDS011;5063;50.878;4.742;2023-08-01T08:17:49;7.55;;;3.78;;
10045;SDS011;5063;50.878;4.742;2023-08-01T08:20:15;8.43;;;3.90;;
10045;SDS011;5063;50.878;4.742;2023-08-01T08:22:41;7.13;;;4.00;;
10045;SDS011;5063;50.878;4.742;2023-08-01T08:25:06;7.35;;;3.88;;
10045;SDS011;5063;50.878;4.742;2023-08-01T08:27:32;9.13;;;4.05;;
10045;SDS011;5063;50.878;4.742;2023-08-01T08:29:58;8.23;;;4.20;;
10045;SDS011;5063;50.878;4.742;2023-08-01T08:32:24;8.45;;;4.07;;
10045;SDS011;5063;50.878;4.742;2023-08-01T08:34:49;10.43;;;4.32;;
10045;SDS011;5063;50.878;4.742;2023-08-01T08:37:15;8.30;;;3.85;;
10045;SDS011;5063;50.878;4.742;2023-08-01T08:39:41;6.88;;;3.63;;
10045;SDS011;5063;50.878;4.742;2023-08-01T08:42:06;7.20;;;3.85;;
10045;SDS011;5063;50.878;4.742;2023-08-01T08:44:32;9.48;;;3.30;;
10045;SDS011;5063;50.878;4.742;2023-08-01T08:47:07;8.68;;;3.80;;
10045;SDS011;5063;50.878;4.742;2023-08-01T08:49:35;4.32;;;3.13;;
10045;SDS011;5063;50.878;4.742;2023-08-01T08:52:02;5.47;;;2.85;;
10045;SDS011;5063;50.878;4.742;2023-08-01T08:54:28;7.10;;;3.40;;
10045;SDS011;5063;50.878;4.742;2023-08-01T08:56:56;8.68;;;3.47;;
10045;SDS011;5063;50.878;4.742;2023-08-01T08:59:23;7.53;;;2.80;;
10045;SDS011;5063;50.878;4.742;2023-08-01T09:01:52;7.25;;;3.35;;
10045;SDS011;5063;50.878;4.742;2023-08-01T09:04:17;6.60;;;3.53;;
10045;SDS011;5063;50.878;4.742;2023-08-01T09:06:44;8.35;;;3.58;;
10045;SDS011;5063;50.878;4.742;2023-08-01T09:09:13;5.22;;;3.17;;
10045;SDS011;5063;50.878;4.742;2023-08-01T09:14:08;7.15;;;2.70;;
10045;SDS011;5063;50.878;4.742;2023-08-01T09:16:34;7.28;;;3.00;;
10045;SDS011;5063;50.878;4.742;2023-08-01T09:19:01;7.25;;;2.72;;
10045;SDS011;5063;50.878;4.742;2023-08-01T09:21:27;4.80;;;2.63;;
10045;SDS011;5063;50.878;4.742;2023-08-01T09:24:13;5.70;;;2.67;;
10045;SDS011;5063;50.878;4.742;2023-08-01T09:26:40;4.13;;;2.38;;
10045;SDS011;5063;50.878;4.742;2023-08-01T09:29:06;3.83;;;2.42;;
10045;SDS011;5063;50.878;4.742;2023-08-01T09:31:33;3.17;;;2.17;;
10045;SDS011;5063;50.878;4.742;2023-08-01T09:34:04;4.43;;;2.25;;
10045;SDS011;5063;50.878;4.742;2023-08-01T09:36:43;6.13;;;1.98;;
10045;SDS011;5063;50.878;4.742;2023-08-01T09:39:09;5.95;;;2.20;;
10045;SDS011;5063;50.878;4.742;2023-08-01T09:41:45;5.43;;;2.55;;
10045;SDS011;5063;50.878;4.742;2023-08-01T09:44:11;4.18;;;2.28;;
10045;SDS011;5063;50.878;4.742;2023-08-01T09:46:40;7.57;;;2.70;;
10045;SDS011;5063;50.878;4.742;2023-08-01T09:49:06;5.97;;;2.80;;
10045;SDS011;5063;50.878;4.742;2023-08-01T09:51:57;7.75;;;2.70;;
10045;SDS011;5063;50.878;4.742;2023-08-01T09:54:22;11.27;;;3.20;;
10045;SDS011;5063;50.878;4.742;2023-08-01T09:56:50;5.13;;;2.80;;
10045;SDS011;5063;50.878;4.742;2023-08-01T09:59:18;5.43;;;2.65;;
10045;SDS011;5063;50.878;4.742;2023-08-01T10:01:44;3.67;;;1.98;;
10045;SDS011;5063;50.878;4.742;2023-08-01T10:04:12;5.88;;;2.40;;
10045;SDS011;5063;50.878;4.742;2023-08-01T10:06:41;11.30;;;2.80;;
10045;SDS011;5063;50.878;4.742;2023-08-01T10:09:09;6.88;;;2.40;;
10045;SDS011;5063;50.878;4.742;2023-08-01T10:11:36;7.72;;;3.08;;
10045;SDS011;5063;50.878;4.742;2023-08-01T10:14:03;4.47;;;1.90;;
10045;SDS011;5063;50.878;4.742;2023-08-01T10:16:32;5.15;;;2.40;;
10045;SDS011;5063;50.878;4.742;2023-08-01T10:18:59;5.53;;;2.30;;
10045;SDS011;5063;50.878;4.742;2023-08-01T10:21:25;2.65;;;1.88;;
10045;SDS011;5063;50.878;4.742;2023-08-01T10:23:52;3.25;;;2.25;;
10045;SDS011;5063;50.878;4.742;2023-08-01T10:26:20;3.95;;;2.15;;
10045;SDS011;5063;50.878;4.742;2023-08-01T10:28:49;7.30;;;2.33;;
10045;SDS011;5063;50.878;4.742;2023-08-01T10:31:17;6.13;;;2.35;;
10045;SDS011;5063;50.878;4.742;2023-08-01T10:33:45;4.53;;;2.47;;
10045;SDS011;5063;50.878;4.742;2023-08-01T10:36:16;5.97;;;2.63;;
10045;SDS011;5063;50.878;4.742;2023-08-01T10:39:01;2.67;;;2.10;;
10045;SDS011;5063;50.878;4.742;2023-08-01T10:41:28;3.90;;;1.85;;
10045;SDS011;5063;50.878;4.742;2023-08-01T10:44:13;4.55;;;2.40;;
10045;SDS011;5063;50.878;4.742;2023-08-01T10:46:47;4.18;;;2.63;;
10045;SDS011;5063;50.878;4.742;2023-08-01T10:49:14;5.25;;;2.30;;
10045;SDS011;5063;50.878;4.742;2023-08-01T10:51:40;4.95;;;2.53;;
10045;SDS011;5063;50.878;4.742;2023-08-01T10:54:17;3.63;;;2.00;;
10045;SDS011;5063;50.878;4.742;2023-08-01T10:56:50;3.90;;;2.20;;
10045;SDS011;5063;50.878;4.742;2023-08-01T10:59:17;4.40;;;2.10;;
10045;SDS011;5063;50.878;4.742;2023-08-01T11:01:47;3.63;;;2.30;;
10045;SDS011;5063;50.878;4.742;2023-08-01T11:04:18;6.28;;;2.58;;
10045;SDS011;5063;50.878;4.742;2023-08-01T11:06:49;5.57;;;2.10;;
10045;SDS011;5063;50.878;4.742;2023-08-01T11:09:20;5.07;;;2.05;;
10045;SDS011;5063;50.878;4.742;2023-08-01T11:11:55;3.25;;;1.75;;
10045;SDS011;5063;50.878;4.742;2023-08-01T11:14:22;5.90;;;2.40;;
10045;SDS011;5063;50.878;4.742;2023-08-01T11:16:49;4.45;;;2.20;;
10045;SDS011;5063;50.878;4.742;2023-08-01T11:19:25;4.25;;;2.22;;
10045;SDS011;5063;50.878;4.742;2023-08-01T11:21:53;3.17;;;2.03;;
10045;SDS011;5063;50.878;4.742;2023-08-01T11:24:21;4.90;;;2.10;;
10045;SDS011;5063;50.878;4.742;2023-08-01T11:26:48;4.55;;;2.17;;
10045;SDS011;5063;50.878;4.742;2023-08-01T11:29:14;4.47;;;2.03;;
10045;SDS011;5063;50.878;4.742;2023-08-01T11:31:46;4.93;;;2.28;;
10045;SDS011;5063;50.878;4.742;2023-08-01T11:34:24;5.25;;;2.28;;
10045;SDS011;5063;50.878;4.742;2023-08-01T11:36:50;4.80;;;2.03;;
10045;SDS011;5063;50.878;4.742;2023-08-01T11:39:16;7.28;;;2.17;;
10045;SDS011;5063;50.878;4.742;2023-08-01T11:41:43;4.75;;;2.40;;
10045;SDS011;5063;50.878;4.742;2023-08-01T11:44:09;11.68;;;2.22;;
10045;SDS011;5063;50.878;4.742;2023-08-01T11:46:36;2.55;;;1.70;;
10045;SDS011;5063;50.878;4.742;2023-08-01T11:49:06;3.80;;;2.22;;
10045;SDS011;5063;50.878;4.742;2023-08-01T11:51:40;4.25;;;1.88;;
10045;SDS011;5063;50.878;4.742;2023-08-01T11:54:06;6.07;;;2.33;;
10045;SDS011;5063;50.878;4.742;2023-08-01T11:56:33;5.85;;;1.90;;
10045;SDS011;5063;50.878;4.742;2023-08-01T11:58:58;4.60;;;2.22;;
10045;SDS011;5063;50.878;4.742;2023-08-01T12:01:25;6.45;;;2.22;;
10045;SDS011;5063;50.878;4.742;2023-08-01T12:03:51;5.35;;;2.42;;
10045;SDS011;5063;50.878;4.742;2023-08-01T12:06:18;4.07;;;2.38;;
10045;SDS011;5063;50.878;4.742;2023-08-01T12:08:47;2.72;;;2.00;;
10045;SDS011;5063;50.878;4.742;2023-08-01T12:11:32;5.15;;;2.50;;
10045;SDS011;5063;50.878;4.742;2023-08-01T12:14:11;8.40;;;2.50;;
10045;SDS011;5063;50.878;4.742;2023-08-01T12:16:39;5.47;;;2.30;;
10045;SDS011;5063;50.878;4.742;2023-08-01T12:19:07;9.65;;;2.33;;
10045;SDS011;5063;50.878;4.742;2023-08-01T12:21:33;4.55;;;2.40;;
10045;SDS011;5063;50.878;4.742;2023-08-01T12:24:00;6.40;;;2.33;;
10045;SDS011;5063;50.878;4.742;2023-08-01T12:26:26;3.95;;;2.28;;
10045;SDS011;5063;50.878;4.742;2023-08-01T12:28:52;4.65;;;2.25;;
10045;SDS011;5063;50.878;4.742;2023-08-01T12:31:18;3.65;;;1.98;;
10045;SDS011;5063;50.878;4.742;2023-08-01T12:33:45;6.13;;;2.42;;
10045;SDS011;5063;50.878;4.742;2023-08-01T12:36:11;5.07;;;2.40;;
10045;SDS011;5063;50.878;4.742;2023-08-01T12:38:37;4.40;;;1.88;;
10045;SDS011;5063;50.878;4.742;2023-08-01T12:41:03;3.17;;;1.48;;
10045;SDS011;5063;50.878;4.742;2023-08-01T12:43:29;4.25;;;1.73;;
10045;SDS011;5063;50.878;4.742;2023-08-01T12:45:54;3.15;;;1.77;;
10045;SDS011;5063;50.878;4.742;2023-08-01T12:48:23;6.15;;;2.03;;
10045;SDS011;5063;50.878;4.742;2023-08-01T12:50:49;5.88;;;1.83;;
10045;SDS011;5063;50.878;4.742;2023-08-01T12:53:15;3.92;;;1.63;;
10045;SDS011;5063;50.878;4.742;2023-08-01T12:55:44;6.43;;;2.33;;
10045;SDS011;5063;50.878;4.742;2023-08-01T12:58:11;4.32;;;1.83;;
10045;SDS011;5063;50.878;4.742;2023-08-01T13:00:38;4.50;;;1.60;;
10045;SDS011;5063;50.878;4.742;2023-08-01T13:03:04;1.92;;;1.73;;
10045;SDS011;5063;50.878;4.742;2023-08-01T13:05:33;3.25;;;1.90;;
10045;SDS011;5063;50.878;4.742;2023-08-01T13:08:00;3.67;;;1.80;;
10045;SDS011;5063;50.878;4.742;2023-08-01T13:10:26;2.42;;;1.73;;
10045;SDS011;5063;50.878;4.742;2023-08-01T13:12:54;7.28;;;1.85;;
10045;SDS011;5063;50.878;4.742;2023-08-01T13:15:20;6.70;;;2.17;;
10045;SDS011;5063;50.878;4.742;2023-08-01T13:17:45;3.63;;;1.65;;
10045;SDS011;5063;50.878;4.742;2023-08-01T13:20:11;4.03;;;1.70;;
10045;SDS011;5063;50.878;4.742;2023-08-01T13:22:37;2.25;;;1.73;;
10045;SDS011;5063;50.878;4.742;2023-08-01T13:25:03;3.08;;;1.67;;
10045;SDS011;5063;50.878;4.742;2023-08-01T13:27:29;2.42;;;1.50;;
10045;SDS011;5063;50.878;4.742;2023-08-01T13:29:55;7.40;;;2.10;;
10045;SDS011;5063;50.878;4.742;2023-08-01T13:32:21;4.40;;;1.95;;
10045;SDS011;5063;50.878;4.742;2023-08-01T13:34:47;3.42;;;1.80;;
10045;SDS011;5063;50.878;4.742;2023-08-01T13:37:12;4.38;;;1.67;;
10045;SDS011;5063;50.878;4.742;2023-08-01T13:39:38;2.95;;;1.60;;
10045;SDS011;5063;50.878;4.742;2023-08-01T13:42:04;4.80;;;1.70;;
10045;SDS011;5063;50.878;4.742;2023-08-01T13:44:30;4.05;;;1.50;;
10045;SDS011;5063;50.878;4.742;2023-08-01T13:46:56;3.63;;;1.50;;
10045;SDS011;5063;50.878;4.742;2023-08-01T13:49:21;3.50;;;1.83;;
10045;SDS011;5063;50.878;4.742;2023-08-01T13:51:47;3.45;;;1.75;;
10045;SDS011;5063;50.878;4.742;2023-08-01T13:54:13;4.50;;;1.92;;
10045;SDS011;5063;50.878;4.742;2023-08-01T13:56:39;5.75;;;1.80;;
10045;SDS011;5063;50.878;4.742;2023-08-01T13:59:04;3.95;;;1.60;;
10045;SDS011;5063;50.878;4.742;2023-08-01T14:01:30;6.65;;;1.77;;
10045;SDS011;5063;50.878;4.742;2023-08-01T14:03:56;4.18;;;1.70;;
10045;SDS011;5063;50.878;4.742;2023-08-01T14:06:21;4.25;;;1.85;;
10045;SDS011;5063;50.878;4.742;2023-08-01T14:08:47;5.75;;;2.10;;
10045;SDS011;5063;50.878;4.742;2023-08-01T14:11:13;4.82;;;2.17;;
10045;SDS011;5063;50.878;4.742;2023-08-01T14:13:38;4.85;;;1.60;;
10045;SDS011;5063;50.878;4.742;2023-08-01T14:16:04;8.73;;;2.17;;
10045;SDS011;5063;50.878;4.742;2023-08-01T14:18:30;2.22;;;1.50;;
10045;SDS011;5063;50.878;4.742;2023-08-01T14:20:56;3.60;;;1.75;;
10045;SDS011;5063;50.878;4.742;2023-08-01T14:23:21;2.97;;;1.88;;
10045;SDS011;5063;50.878;4.742;2023-08-01T14:25:47;3.88;;;1.67;;
10045;SDS011;5063;50.878;4.742;2023-08-01T14:28:13;3.35;;;1.70;;
10045;SDS011;5063;50.878;4.742;2023-08-01T14:30:39;6.40;;;2.03;;
10045;SDS011;5063;50.878;4.742;2023-08-01T14:33:08;3.00;;;1.35;;
10045;SDS011;5063;50.878;4.742;2023-08-01T14:35:35;5.30;;;1.75;;
10045;SDS011;5063;50.878;4.742;2023-08-01T14:38:01;5.30;;;2.45;;
10045;SDS011;5063;50.878;4.742;2023-08-01T14:40:28;5.57;;;1.83;;
10045;SDS011;5063;50.878;4.742;2023-08-01T14:42:55;4.82;;;1.98;;
10045;SDS011;5063;50.878;4.742;2023-08-01T14:45:20;3.03;;;1.85;;
10045;SDS011;5063;50.878;4.742;2023-08-01T14:47:47;4.05;;;1.92;;
10045;SDS011;5063;50.878;4.742;2023-08-01T14:50:13;2.70;;;1.70;;
10045;SDS011;5063;50.878;4.742;2023-08-01T14:52:39;4.57;;;2.00;;
10045;SDS011;5063;50.878;4.742;2023-08-01T14:55:06;2.13;;;1.60;;
10045;SDS011;5063;50.878;4.742;2023-08-01T14:57:33;3.38;;;1.88;;
10045;SDS011;5063;50.878;4.742;2023-08-01T14:59:59;7.43;;;1.98;;